sensor_id;sensor_type;location;lat;lon;timestamp;P1;durP1;ratioP1;P2;durP2;ratioP2
77733;SDS011;66902;41.720;44.796;2023-04-24T00:00:00;4.10;;;2.80;;
77733;SDS011;66902;41.720;44.796;2023-04-24T00:02:55;3.10;;;2.60;;
77733;SDS011;66902;41.720;44.796;2023-04-24T00:05:29;5.80;;;2.50;;
77733;SDS011;66902;41.720;44.796;2023-04-24T00:08:03;1.90;;;1.60;;
77733;SDS011;66902;41.720;44.796;2023-04-24T00:10:37;3.20;;;2.30;;
77733;SDS011;66902;41.720;44.796;2023-04-24T00:13:13;4.00;;;2.80;;
77733;SDS011;66902;41.720;44.796;2023-04-24T00:15:47;4.80;;;2.40;;
77733;SDS011;66902;41.720;44.796;2023-04-24T00:18:21;4.80;;;2.70;;
77733;SDS011;66902;41.720;44.796;2023-04-24T00:20:56;3.80;;;2.50;;
77733;SDS011;66902;41.720;44.796;2023-04-24T00:23:32;4.40;;;2.10;;
77733;SDS011;66902;41.720;44.796;2023-04-24T00:26:06;2.20;;;2.00;;
77733;SDS011;66902;41.720;44.796;2023-04-24T00:28:42;5.20;;;2.10;;
77733;SDS011;66902;41.720;44.796;2023-04-24T00:31:17;4.10;;;2.90;;
77733;SDS011;66902;41.720;44.796;2023-04-24T00:33:52;3.30;;;3.00;;
77733;SDS011;66902;41.720;44.796;2023-04-24T00:36:28;2.20;;;2.00;;
77733;SDS011;66902;41.720;44.796;2023-04-24T00:39:05;2.90;;;2.70;;
77733;SDS011;66902;41.720;44.796;2023-04-24T00:41:39;2.90;;;2.20;;
77733;SDS011;66902;41.720;44.796;2023-04-24T00:44:13;4.70;;;3.00;;
77733;SDS011;66902;41.720;44.796;2023-04-24T00:46:47;5.00;;;3.00;;
77733;SDS011;66902;41.720;44.796;2023-04-24T00:49:24;2.80;;;2.40;;
77733;SDS011;66902;41.720;44.796;2023-04-24T00:52:04;3.90;;;3.10;;
77733;SDS011;66902;41.720;44.796;2023-04-24T00:54:39;4.00;;;2.80;;
77733;SDS011;66902;41.720;44.796;2023-04-24T00:57:12;5.30;;;2.90;;
77733;SDS011;66902;41.720;44.796;2023-04-24T00:59:47;4.20;;;2.40;;
77733;SDS011;66902;41.720;44.796;2023-04-24T01:02:21;7.90;;;2.60;;
77733;SDS011;66902;41.720;44.796;2023-04-24T01:04:55;3.40;;;2.50;;
77733;SDS011;66902;41.720;44.796;2023-04-24T01:07:29;6.30;;;4.10;;
77733;SDS011;66902;41.720;44.796;2023-04-24T01:10:06;3.10;;;2.80;;
77733;SDS011;66902;41.720;44.796;2023-04-24T01:12:41;4.20;;;3.60;;
77733;SDS011;66902;41.720;44.796;2023-04-24T01:15:15;3.50;;;2.70;;
77733;SDS011;66902;41.720;44.796;2023-04-24T01:17:49;4.80;;;3.50;;
77733;SDS011;66902;41.720;44.796;2023-04-24T01:20:23;5.80;;;3.50;;
77733;SDS011;66902;41.720;44.796;2023-04-24T01:22:59;5.00;;;3.20;;
77733;SDS011;66902;41.720;44.796;2023-04-24T01:25:34;4.60;;;4.20;;
77733;SDS011;66902;41.720;44.796;2023-04-24T01:28:08;4.20;;;3.80;;
77733;SDS011;66902;41.720;44.796;2023-04-24T01:30:44;5.10;;;4.00;;
77733;SDS011;66902;41.720;44.796;2023-04-24T01:35:55;5.90;;;4.20;;
77733;SDS011;66902;41.720;44.796;2023-04-24T01:38:29;7.00;;;4.90;;
77733;SDS011;66902;41.720;44.796;2023-04-24T01:41:03;7.40;;;6.20;;
77733;SDS011;66902;41.720;44.796;2023-04-24T01:43:37;8.00;;;6.30;;
77733;SDS011;66902;41.720;44.796;2023-04-24T01:46:11;7.70;;;6.90;;
77733;SDS011;66902;41.720;44.796;2023-04-24T01:48:45;7.40;;;6.70;;
77733;SDS011;66902;41.720;44.796;2023-04-24T01:51:19;10.90;;;9.80;;
77733;SDS011;66902;41.720;44.796;2023-04-24T01:53:53;8.00;;;7.30;;
77733;SDS011;66902;41.720;44.796;2023-04-24T01:56:27;7.60;;;6.90;;
77733;SDS011;66902;41.720;44.796;2023-04-24T01:59:02;7.30;;;6.60;;
77733;SDS011;66902;41.720;44.796;2023-04-24T02:01:36;6.80;;;6.20;;
77733;SDS011;66902;41.720;44.796;2023-04-24T02:04:11;12.00;;;8.20;;
77733;SDS011;66902;41.720;44.796;2023-04-24T02:06:54;9.60;;;6.20;;
77733;SDS011;66902;41.720;44.796;2023-04-24T02:09:31;6.40;;;5.40;;
77733;SDS011;66902;41.720;44.796;2023-04-24T02:12:04;6.50;;;6.00;;
77733;SDS011;66902;41.720;44.796;2023-04-24T02:14:40;9.00;;;8.00;;
77733;SDS011;66902;41.720;44.796;2023-04-24T02:17:14;7.60;;;6.70;;
77733;SDS011;66902;41.720;44.796;2023-04-24T02:19:49;14.90;;;8.40;;
77733;SDS011;66902;41.720;44.796;2023-04-24T02:22:22;9.20;;;8.30;;
77733;SDS011;66902;41.720;44.796;2023-04-24T02:24:58;8.50;;;7.50;;
77733;SDS011;66902;41.720;44.796;2023-04-24T02:27:32;9.40;;;7.40;;
77733;SDS011;66902;41.720;44.796;2023-04-24T02:30:06;7.90;;;7.10;;
77733;SDS011;66902;41.720;44.796;2023-04-24T02:32:41;7.80;;;6.30;;
77733;SDS011;66902;41.720;44.796;2023-04-24T02:35:15;8.90;;;7.10;;
77733;SDS011;66902;41.720;44.796;2023-04-24T02:37:49;8.20;;;7.50;;
77733;SDS011;66902;41.720;44.796;2023-04-24T02:40:23;7.50;;;6.70;;
77733;SDS011;66902;41.720;44.796;2023-04-24T02:42:56;8.80;;;7.90;;
77733;SDS011;66902;41.720;44.796;2023-04-24T02:45:31;9.80;;;8.70;;
77733;SDS011;66902;41.720;44.796;2023-04-24T02:48:05;9.70;;;7.80;;
77733;SDS011;66902;41.720;44.796;2023-04-24T02:50:39;8.60;;;7.10;;
77733;SDS011;66902;41.720;44.796;2023-04-24T02:53:12;8.30;;;7.50;;
77733;SDS011;66902;41.720;44.796;2023-04-24T02:55:50;8.50;;;7.20;;
77733;SDS011;66902;41.720;44.796;2023-04-24T02:58:26;8.50;;;7.00;;
77733;SDS011;66902;41.720;44.796;2023-04-24T03:01:01;7.50;;;6.80;;
77733;SDS011;66902;41.720;44.796;2023-04-24T03:03:36;8.60;;;7.50;;
77733;SDS011;66902;41.720;44.796;2023-04-24T03:06:11;9.70;;;7.90;;
77733;SDS011;66902;41.720;44.796;2023-04-24T03:08:45;9.40;;;8.60;;
77733;SDS011;66902;41.720;44.796;2023-04-24T03:11:19;8.60;;;7.70;;
77733;SDS011;66902;41.720;44.796;2023-04-24T03:13:53;11.90;;;9.00;;
77733;SDS011;66902;41.720;44.796;2023-04-24T03:16:27;10.00;;;8.90;;
77733;SDS011;66902;41.720;44.796;2023-04-24T03:19:01;9.90;;;8.90;;
77733;SDS011;66902;41.720;44.796;2023-04-24T03:21:35;9.80;;;8.20;;
77733;SDS011;66902;41.720;44.796;2023-04-24T03:24:12;7.90;;;7.10;;
77733;SDS011;66902;41.720;44.796;2023-04-24T03:26:46;10.30;;;7.60;;
77733;SDS011;66902;41.720;44.796;2023-04-24T03:29:19;9.80;;;7.20;;
77733;SDS011;66902;41.720;44.796;2023-04-24T03:31:53;9.10;;;8.20;;
77733;SDS011;66902;41.720;44.796;2023-04-24T03:34:31;8.80;;;8.00;;
77733;SDS011;66902;41.720;44.796;2023-04-24T03:37:04;14.60;;;8.70;;
77733;SDS011;66902;41.720;44.796;2023-04-24T03:39:38;10.00;;;6.90;;
77733;SDS011;66902;41.720;44.796;2023-04-24T03:42:13;10.50;;;8.10;;
77733;SDS011;66902;41.720;44.796;2023-04-24T03:44:48;8.40;;;7.20;;
77733;SDS011;66902;41.720;44.796;2023-04-24T03:47:21;8.90;;;7.70;;
77733;SDS011;66902;41.720;44.796;2023-04-24T03:49:57;11.10;;;9.70;;
77733;SDS011;66902;41.720;44.796;2023-04-24T03:52:31;11.70;;;10.50;;
77733;SDS011;66902;41.720;44.796;2023-04-24T03:55:07;8.00;;;7.20;;
77733;SDS011;66902;41.720;44.796;2023-04-24T03:57:43;9.30;;;7.60;;
77733;SDS011;66902;41.720;44.796;2023-04-24T04:00:17;8.00;;;6.50;;
77733;SDS011;66902;41.720;44.796;2023-04-24T04:02:52;9.10;;;7.40;;
77733;SDS011;66902;41.720;44.796;2023-04-24T04:05:26;8.80;;;7.00;;
77733;SDS011;66902;41.720;44.796;2023-04-24T04:08:00;10.90;;;7.90;;
77733;SDS011;66902;41.720;44.796;2023-04-24T04:10:34;8.90;;;8.00;;
77733;SDS011;66902;41.720;44.796;2023-04-24T04:13:08;12.20;;;7.70;;
77733;SDS011;66902;41.720;44.796;2023-04-24T04:15:42;7.20;;;6.50;;
77733;SDS011;66902;41.720;44.796;2023-04-24T04:18:16;9.50;;;8.50;;
77733;SDS011;66902;41.720;44.796;2023-04-24T04:20:52;9.20;;;8.40;;
77733;SDS011;66902;41.720;44.796;2023-04-24T04:23:26;11.60;;;8.70;;
77733;SDS011;66902;41.720;44.796;2023-04-24T04:26:00;13.60;;;8.20;;
77733;SDS011;66902;41.720;44.796;2023-04-24T04:28:37;9.90;;;8.70;;
77733;SDS011;66902;41.720;44.796;2023-04-24T04:31:10;14.50;;;9.60;;
77733;SDS011;66902;41.720;44.796;2023-04-24T04:33:44;10.90;;;8.50;;
77733;SDS011;66902;41.720;44.796;2023-04-24T04:36:19;9.70;;;7.30;;
77733;SDS011;66902;41.720;44.796;2023-04-24T04:38:55;10.30;;;6.40;;
77733;SDS011;66902;41.720;44.796;2023-04-24T04:41:30;8.20;;;6.10;;
77733;SDS011;66902;41.720;44.796;2023-04-24T04:44:05;13.10;;;7.30;;
77733;SDS011;66902;41.720;44.796;2023-04-24T04:46:39;10.30;;;6.40;;
77733;SDS011;66902;41.720;44.796;2023-04-24T04:49:14;6.80;;;5.70;;
77733;SDS011;66902;41.720;44.796;2023-04-24T04:51:48;5.90;;;5.40;;
77733;SDS011;66902;41.720;44.796;2023-04-24T04:54:23;9.20;;;6.10;;
77733;SDS011;66902;41.720;44.796;2023-04-24T04:56:58;12.40;;;5.90;;
77733;SDS011;66902;41.720;44.796;2023-04-24T04:59:34;8.30;;;5.40;;
77733;SDS011;66902;41.720;44.796;2023-04-24T05:02:08;7.50;;;4.80;;
77733;SDS011;66902;41.720;44.796;2023-04-24T05:04:42;10.90;;;5.70;;
77733;SDS011;66902;41.720;44.796;2023-04-24T05:07:16;8.00;;;5.60;;
77733;SDS011;66902;41.720;44.796;2023-04-24T05:09:50;6.70;;;5.10;;
77733;SDS011;66902;41.720;44.796;2023-04-24T05:12:25;9.10;;;4.30;;
77733;SDS011;66902;41.720;44.796;2023-04-24T05:14:59;9.00;;;4.40;;
77733;SDS011;66902;41.720;44.796;2023-04-24T05:17:34;4.20;;;3.20;;
77733;SDS011;66902;41.720;44.796;2023-04-24T05:20:12;4.40;;;2.70;;
77733;SDS011;66902;41.720;44.796;2023-04-24T05:22:46;9.60;;;3.50;;
77733;SDS011;66902;41.720;44.796;2023-04-24T05:25:20;9.60;;;2.50;;
77733;SDS011;66902;41.720;44.796;2023-04-24T05:27:57;4.00;;;2.60;;
77733;SDS011;66902;41.720;44.796;2023-04-24T05:30:33;8.40;;;3.00;;
77733;SDS011;66902;41.720;44.796;2023-04-24T05:33:07;3.20;;;2.00;;
77733;SDS011;66902;41.720;44.796;2023-04-24T05:35:43;5.00;;;2.50;;
77733;SDS011;66902;41.720;44.796;2023-04-24T05:38:19;5.80;;;2.90;;
77733;SDS011;66902;41.720;44.796;2023-04-24T05:40:54;6.10;;;3.00;;
77733;SDS011;66902;41.720;44.796;2023-04-24T05:43:30;7.30;;;3.10;;
77733;SDS011;66902;41.720;44.796;2023-04-24T05:46:06;4.00;;;2.70;;
77733;SDS011;66902;41.720;44.796;2023-04-24T05:48:39;5.10;;;2.60;;
77733;SDS011;66902;41.720;44.796;2023-04-24T05:51:13;8.30;;;2.20;;
77733;SDS011;66902;41.720;44.796;2023-04-24T05:53:48;4.50;;;2.90;;
77733;SDS011;66902;41.720;44.796;2023-04-24T05:56:23;6.40;;;3.00;;
77733;SDS011;66902;41.720;44.796;2023-04-24T05:59:06;4.20;;;2.00;;
77733;SDS011;66902;41.720;44.796;2023-04-24T06:01:41;2.80;;;1.80;;
77733;SDS011;66902;41.720;44.796;2023-04-24T06:04:16;4.50;;;1.80;;
77733;SDS011;66902;41.720;44.796;2023-04-24T06:09:25;8.30;;;2.50;;
77733;SDS011;66902;41.720;44.796;2023-04-24T06:12:02;5.80;;;2.00;;
77733;SDS011;66902;41.720;44.796;2023-04-24T06:14:38;7.20;;;1.80;;
77733;SDS011;66902;41.720;44.796;2023-04-24T06:17:12;5.70;;;2.10;;
77733;SDS011;66902;41.720;44.796;2023-04-24T06:19:48;5.90;;;3.00;;
77733;SDS011;66902;41.720;44.796;2023-04-24T06:22:21;6.20;;;2.10;;
77733;SDS011;66902;41.720;44.796;2023-04-24T06:24:56;2.90;;;1.80;;
77733;SDS011;66902;41.720;44.796;2023-04-24T06:27:39;7.80;;;2.50;;
77733;SDS011;66902;41.720;44.796;2023-04-24T06:30:16;6.00;;;2.00;;
77733;SDS011;66902;41.720;44.796;2023-04-24T06:32:52;5.70;;;1.80;;
77733;SDS011;66902;41.720;44.796;2023-04-24T06:35:38;4.90;;;2.30;;
77733;SDS011;66902;41.720;44.796;2023-04-24T06:38:12;7.20;;;2.40;;
77733;SDS011;66902;41.720;44.796;2023-04-24T06:40:48;3.50;;;1.90;;
77733;SDS011;66902;41.720;44.796;2023-04-24T06:43:22;3.60;;;2.00;;
77733;SDS011;66902;41.720;44.796;2023-04-24T06:45:56;4.30;;;1.80;;
77733;SDS011;66902;41.720;44.796;2023-04-24T06:48:33;4.70;;;1.70;;
77733;SDS011;66902;41.720;44.796;2023-04-24T06:51:07;5.10;;;1.40;;
77733;SDS011;66902;41.720;44.796;2023-04-24T06:53:42;3.40;;;1.80;;
77733;SDS011;66902;41.720;44.796;2023-04-24T06:56:18;7.30;;;2.50;;
77733;SDS011;66902;41.720;44.796;2023-04-24T07:01:25;3.90;;;2.20;;
77733;SDS011;66902;41.720;44.796;2023-04-24T07:03:59;3.30;;;2.00;;
77733;SDS011;66902;41.720;44.796;2023-04-24T07:06:36;4.80;;;2.10;;
77733;SDS011;66902;41.720;44.796;2023-04-24T07:09:11;6.00;;;2.70;;
77733;SDS011;66902;41.720;44.796;2023-04-24T07:11:47;4.30;;;2.20;;
77733;SDS011;66902;41.720;44.796;2023-04-24T07:14:24;11.70;;;2.20;;
77733;SDS011;66902;41.720;44.796;2023-04-24T07:17:01;6.20;;;2.60;;
77733;SDS011;66902;41.720;44.796;2023-04-24T07:19:35;7.20;;;2.20;;
77733;SDS011;66902;41.720;44.796;2023-04-24T07:22:11;8.30;;;2.50;;
77733;SDS011;66902;41.720;44.796;2023-04-24T07:24:50;12.00;;;2.50;;
77733;SDS011;66902;41.720;44.796;2023-04-24T07:27:25;12.30;;;2.70;;
77733;SDS011;66902;41.720;44.796;2023-04-24T07:30:00;8.70;;;2.30;;
77733;SDS011;66902;41.720;44.796;2023-04-24T07:32:35;4.60;;;2.30;;
77733;SDS011;66902;41.720;44.796;2023-04-24T07:35:09;5.00;;;2.60;;
77733;SDS011;66902;41.720;44.796;2023-04-24T07:37:45;6.40;;;2.70;;
77733;SDS011;66902;41.720;44.796;2023-04-24T07:40:19;3.90;;;2.50;;
77733;SDS011;66902;41.720;44.796;2023-04-24T07:42:53;4.80;;;2.80;;
77733;SDS011;66902;41.720;44.796;2023-04-24T07:45:26;5.90;;;2.60;;
77733;SDS011;66902;41.720;44.796;2023-04-24T07:48:01;7.00;;;2.70;;
77733;SDS011;66902;41.720;44.796;2023-04-24T07:50:35;8.20;;;3.30;;
77733;SDS011;66902;41.720;44.796;2023-04-24T07:53:09;8.40;;;3.00;;
77733;SDS011;66902;41.720;44.796;2023-04-24T07:55:43;9.60;;;3.30;;
77733;SDS011;66902;41.720;44.796;2023-04-24T07:58:21;5.50;;;3.90;;
77733;SDS011;66902;41.720;44.796;2023-04-24T08:00:55;8.80;;;4.40;;
77733;SDS011;66902;41.720;44.796;2023-04-24T08:03:28;7.10;;;4.10;;
77733;SDS011;66902;41.720;44.796;2023-04-24T08:06:03;15.30;;;4.10;;
77733;SDS011;66902;41.720;44.796;2023-04-24T08:08:40;8.30;;;4.00;;
77733;SDS011;66902;41.720;44.796;2023-04-24T08:11:13;5.30;;;3.70;;
77733;SDS011;66902;41.720;44.796;2023-04-24T08:13:52;6.30;;;4.70;;
77733;SDS011;66902;41.720;44.796;2023-04-24T08:16:26;8.40;;;4.10;;
77733;SDS011;66902;41.720;44.796;2023-04-24T08:19:00;8.90;;;3.60;;
77733;SDS011;66902;41.720;44.796;2023-04-24T08:21:34;12.30;;;7.50;;
77733;SDS011;66902;41.720;44.796;2023-04-24T08:24:08;5.10;;;3.70;;
77733;SDS011;66902;41.720;44.796;2023-04-24T08:26:41;5.30;;;3.90;;
77733;SDS011;66902;41.720;44.796;2023-04-24T08:29:17;4.60;;;2.70;;
77733;SDS011;66902;41.720;44.796;2023-04-24T08:31:52;16.00;;;4.90;;
77733;SDS011;66902;41.720;44.796;2023-04-24T08:34:26;8.30;;;4.40;;
77733;SDS011;66902;41.720;44.796;2023-04-24T08:37:00;5.50;;;3.70;;
77733;SDS011;66902;41.720;44.796;2023-04-24T08:39:34;12.80;;;4.10;;
77733;SDS011;66902;41.720;44.796;2023-04-24T08:42:08;7.80;;;3.30;;
77733;SDS011;66902;41.720;44.796;2023-04-24T08:44:48;11.20;;;4.60;;
77733;SDS011;66902;41.720;44.796;2023-04-24T08:47:25;12.30;;;4.00;;
77733;SDS011;66902;41.720;44.796;2023-04-24T08:50:03;16.20;;;5.00;;
77733;SDS011;66902;41.720;44.796;2023-04-24T08:52:38;6.10;;;3.50;;
77733;SDS011;66902;41.720;44.796;2023-04-24T08:55:15;15.70;;;4.00;;
77733;SDS011;66902;41.720;44.796;2023-04-24T08:57:51;7.70;;;4.90;;
77733;SDS011;66902;41.720;44.796;2023-04-24T09:00:28;6.90;;;4.30;;
77733;SDS011;66902;41.720;44.796;2023-04-24T09:03:04;9.70;;;4.80;;
77733;SDS011;66902;41.720;44.796;2023-04-24T09:05:40;14.30;;;4.80;;
77733;SDS011;66902;41.720;44.796;2023-04-24T09:10:50;6.10;;;3.50;;
77733;SDS011;66902;41.720;44.796;2023-04-24T09:13:28;16.40;;;5.80;;
77733;SDS011;66902;41.720;44.796;2023-04-24T09:16:04;9.00;;;4.90;;
77733;SDS011;66902;41.720;44.796;2023-04-24T09:18:45;14.80;;;5.50;;
77733;SDS011;66902;41.720;44.796;2023-04-24T09:21:24;8.30;;;4.40;;
77733;SDS011;66902;41.720;44.796;2023-04-24T09:24:05;10.70;;;5.40;;
77733;SDS011;66902;41.720;44.796;2023-04-24T09:26:39;10.50;;;4.40;;
77733;SDS011;66902;41.720;44.796;2023-04-24T09:29:17;9.80;;;4.70;;
77733;SDS011;66902;41.720;44.796;2023-04-24T09:31:53;17.50;;;5.70;;
77733;SDS011;66902;41.720;44.796;2023-04-24T09:34:29;8.60;;;4.40;;
77733;SDS011;66902;41.720;44.796;2023-04-24T09:37:03;8.70;;;5.20;;
77733;SDS011;66902;41.720;44.796;2023-04-24T09:39:40;10.30;;;5.50;;
77733;SDS011;66902;41.720;44.796;2023-04-24T09:42:15;10.40;;;5.00;;
77733;SDS011;66902;41.720;44.796;2023-04-24T09:44:49;9.60;;;4.30;;
77733;SDS011;66902;41.720;44.796;2023-04-24T09:47:38;10.60;;;4.50;;
77733;SDS011;66902;41.720;44.796;2023-04-24T09:50:14;12.20;;;3.90;;
77733;SDS011;66902;41.720;44.796;2023-04-24T09:52:57;11.30;;;4.90;;
77733;SDS011;66902;41.720;44.796;2023-04-24T09:55:36;16.00;;;5.30;;
77733;SDS011;66902;41.720;44.796;2023-04-24T09:58:14;9.40;;;7.00;;
77733;SDS011;66902;41.720;44.796;2023-04-24T10:00:48;5.90;;;4.80;;
77733;SDS011;66902;41.720;44.796;2023-04-24T10:03:25;20.10;;;4.80;;
77733;SDS011;66902;41.720;44.796;2023-04-24T10:08:36;11.30;;;4.40;;
77733;SDS011;66902;41.720;44.796;2023-04-24T10:11:11;13.20;;;5.20;;
77733;SDS011;66902;41.720;44.796;2023-04-24T10:13:46;10.10;;;4.60;;
77733;SDS011;66902;41.720;44.796;2023-04-24T10:16:20;13.00;;;4.50;;
77733;SDS011;66902;41.720;44.796;2023-04-24T10:18:54;10.90;;;5.90;;
77733;SDS011;66902;41.720;44.796;2023-04-24T10:21:28;7.00;;;5.00;;
77733;SDS011;66902;41.720;44.796;2023-04-24T10:24:02;8.70;;;3.70;;
77733;SDS011;66902;41.720;44.796;2023-04-24T10:26:45;9.00;;;4.90;;
77733;SDS011;66902;41.720;44.796;2023-04-24T10:29:22;11.40;;;4.30;;
77733;SDS011;66902;41.720;44.796;2023-04-24T10:31:56;17.00;;;4.20;;
77733;SDS011;66902;41.720;44.796;2023-04-24T10:34:30;8.90;;;4.90;;
77733;SDS011;66902;41.720;44.796;2023-04-24T10:37:04;7.70;;;4.60;;
77733;SDS011;66902;41.720;44.796;2023-04-24T10:39:39;12.00;;;4.80;;
77733;SDS011;66902;41.720;44.796;2023-04-24T10:42:15;14.60;;;9.90;;
77733;SDS011;66902;41.720;44.796;2023-04-24T10:44:50;14.70;;;3.90;;
77733;SDS011;66902;41.720;44.796;2023-04-24T10:47:25;8.90;;;5.50;;
77733;SDS011;66902;41.720;44.796;2023-04-24T10:50:03;16.20;;;3.60;;
77733;SDS011;66902;41.720;44.796;2023-04-24T10:52:45;12.30;;;8.40;;
77733;SDS011;66902;41.720;44.796;2023-04-24T10:55:41;9.60;;;4.60;;
77733;SDS011;66902;41.720;44.796;2023-04-24T10:58:20;7.40;;;4.20;;
77733;SDS011;66902;41.720;44.796;2023-04-24T11:00:58;7.60;;;3.20;;
77733;SDS011;66902;41.720;44.796;2023-04-24T11:03:50;20.60;;;5.90;;
77733;SDS011;66902;41.720;44.796;2023-04-24T11:06:32;14.90;;;5.30;;
77733;SDS011;66902;41.720;44.796;2023-04-24T11:09:10;9.20;;;5.10;;
77733;SDS011;66902;41.720;44.796;2023-04-24T11:11:46;12.60;;;5.20;;
77733;SDS011;66902;41.720;44.796;2023-04-24T11:17:34;12.60;;;5.30;;
77733;SDS011;66902;41.720;44.796;2023-04-24T11:20:17;7.10;;;4.40;;
77733;SDS011;66902;41.720;44.796;2023-04-24T11:23:00;18.10;;;5.60;;
77733;SDS011;66902;41.720;44.796;2023-04-24T11:25:40;10.20;;;5.90;;
77733;SDS011;66902;41.720;44.796;2023-04-24T11:28:17;7.40;;;3.90;;
77733;SDS011;66902;41.720;44.796;2023-04-24T11:30:53;13.20;;;7.00;;
77733;SDS011;66902;41.720;44.796;2023-04-24T11:33:35;16.10;;;5.00;;
77733;SDS011;66902;41.720;44.796;2023-04-24T11:36:16;10.10;;;4.60;;
77733;SDS011;66902;41.720;44.796;2023-04-24T11:38:58;18.00;;;7.10;;
77733;SDS011;66902;41.720;44.796;2023-04-24T11:44:09;8.70;;;5.80;;
77733;SDS011;66902;41.720;44.796;2023-04-24T11:46:46;10.50;;;8.30;;
77733;SDS011;66902;41.720;44.796;2023-04-24T11:49:23;15.20;;;9.40;;
77733;SDS011;66902;41.720;44.796;2023-04-24T11:52:01;12.70;;;7.20;;
77733;SDS011;66902;41.720;44.796;2023-04-24T11:54:39;16.70;;;8.50;;
77733;SDS011;66902;41.720;44.796;2023-04-24T11:57:24;21.40;;;8.40;;
77733;SDS011;66902;41.720;44.796;2023-04-24T12:00:05;12.90;;;8.10;;
77733;SDS011;66902;41.720;44.796;2023-04-24T12:03:05;11.70;;;8.40;;
77733;SDS011;66902;41.720;44.796;2023-04-24T12:05:41;14.70;;;8.40;;
77733;SDS011;66902;41.720;44.796;2023-04-24T12:08:28;13.20;;;8.90;;
77733;SDS011;66902;41.720;44.796;2023-04-24T12:11:05;20.20;;;10.60;;
77733;SDS011;66902;41.720;44.796;2023-04-24T12:13:40;16.10;;;7.70;;
77733;SDS011;66902;41.720;44.796;2023-04-24T12:16:18;11.10;;;9.00;;
77733;SDS011;66902;41.720;44.796;2023-04-24T12:18:54;17.90;;;9.90;;
77733;SDS011;66902;41.720;44.796;2023-04-24T12:21:31;18.20;;;10.30;;
77733;SDS011;66902;41.720;44.796;2023-04-24T12:24:08;22.90;;;10.40;;
77733;SDS011;66902;41.720;44.796;2023-04-24T12:26:44;15.60;;;10.60;;
77733;SDS011;66902;41.720;44.796;2023-04-24T12:29:20;18.40;;;10.20;;
77733;SDS011;66902;41.720;44.796;2023-04-24T12:32:02;20.80;;;10.30;;
77733;SDS011;66902;41.720;44.796;2023-04-24T12:34:37;12.90;;;10.30;;
77733;SDS011;66902;41.720;44.796;2023-04-24T12:37:12;25.60;;;9.50;;
77733;SDS011;66902;41.720;44.796;2023-04-24T12:40:02;22.90;;;9.30;;
77733;SDS011;66902;41.720;44.796;2023-04-24T12:42:43;15.90;;;9.70;;
77733;SDS011;66902;41.720;44.796;2023-04-24T12:45:22;20.90;;;11.70;;
77733;SDS011;66902;41.720;44.796;2023-04-24T12:47:57;20.60;;;12.80;;
77733;SDS011;66902;41.720;44.796;2023-04-24T12:50:43;25.60;;;14.40;;
77733;SDS011;66902;41.720;44.796;2023-04-24T12:53:17;20.40;;;15.80;;
77733;SDS011;66902;41.720;44.796;2023-04-24T12:55:52;18.70;;;16.10;;
77733;SDS011;66902;41.720;44.796;2023-04-24T12:58:26;17.20;;;10.30;;
77733;SDS011;66902;41.720;44.796;2023-04-24T13:01:02;16.40;;;10.00;;
77733;SDS011;66902;41.720;44.796;2023-04-24T13:03:36;18.90;;;11.00;;
77733;SDS011;66902;41.720;44.796;2023-04-24T13:06:14;21.40;;;12.50;;
77733;SDS011;66902;41.720;44.796;2023-04-24T13:08:50;19.80;;;12.60;;
77733;SDS011;66902;41.720;44.796;2023-04-24T13:11:25;20.70;;;13.30;;
77733;SDS011;66902;41.720;44.796;2023-04-24T13:14:00;19.00;;;12.40;;
77733;SDS011;66902;41.720;44.796;2023-04-24T13:16:34;19.30;;;13.20;;
77733;SDS011;66902;41.720;44.796;2023-04-24T13:19:08;20.00;;;13.80;;
77733;SDS011;66902;41.720;44.796;2023-04-24T13:21:43;18.20;;;11.90;;
77733;SDS011;66902;41.720;44.796;2023-04-24T13:24:17;18.70;;;12.80;;
77733;SDS011;66902;41.720;44.796;2023-04-24T13:26:51;12.70;;;9.90;;
77733;SDS011;66902;41.720;44.796;2023-04-24T13:29:29;14.80;;;10.50;;
77733;SDS011;66902;41.720;44.796;2023-04-24T13:32:10;18.90;;;11.40;;
77733;SDS011;66902;41.720;44.796;2023-04-24T13:34:45;14.20;;;11.30;;
77733;SDS011;66902;41.720;44.796;2023-04-24T13:37:22;16.00;;;12.70;;
77733;SDS011;66902;41.720;44.796;2023-04-24T13:39:57;22.10;;;12.90;;
77733;SDS011;66902;41.720;44.796;2023-04-24T13:42:43;15.60;;;12.70;;
77733;SDS011;66902;41.720;44.796;2023-04-24T13:45:21;18.90;;;14.90;;
77733;SDS011;66902;41.720;44.796;2023-04-24T13:51:04;32.90;;;17.60;;
77733;SDS011;66902;41.720;44.796;2023-04-24T13:53:42;24.70;;;16.00;;
77733;SDS011;66902;41.720;44.796;2023-04-24T13:56:27;20.90;;;15.70;;
77733;SDS011;66902;41.720;44.796;2023-04-24T13:59:01;21.20;;;16.30;;
77733;SDS011;66902;41.720;44.796;2023-04-24T14:01:40;19.50;;;15.00;;
77733;SDS011;66902;41.720;44.796;2023-04-24T14:04:17;20.70;;;16.00;;
77733;SDS011;66902;41.720;44.796;2023-04-24T14:06:54;20.70;;;13.00;;
77733;SDS011;66902;41.720;44.796;2023-04-24T14:09:28;18.80;;;14.30;;
77733;SDS011;66902;41.720;44.796;2023-04-24T14:12:03;18.80;;;12.50;;
77733;SDS011;66902;41.720;44.796;2023-04-24T14:14:39;17.60;;;14.00;;
77733;SDS011;66902;41.720;44.796;2023-04-24T14:17:23;16.70;;;13.50;;
77733;SDS011;66902;41.720;44.796;2023-04-24T14:20:06;15.10;;;13.60;;
77733;SDS011;66902;41.720;44.796;2023-04-24T14:22:47;16.80;;;13.80;;
77733;SDS011;66902;41.720;44.796;2023-04-24T14:25:22;17.10;;;12.60;;
77733;SDS011;66902;41.720;44.796;2023-04-24T14:28:09;13.90;;;12.20;;
77733;SDS011;66902;41.720;44.796;2023-04-24T14:31:05;14.50;;;11.30;;
77733;SDS011;66902;41.720;44.796;2023-04-24T14:33:42;16.80;;;12.50;;
77733;SDS011;66902;41.720;44.796;2023-04-24T14:39:22;15.10;;;10.00;;
77733;SDS011;66902;41.720;44.796;2023-04-24T14:42:04;16.10;;;11.50;;
77733;SDS011;66902;41.720;44.796;2023-04-24T14:44:42;14.80;;;10.80;;
77733;SDS011;66902;41.720;44.796;2023-04-24T14:47:21;15.50;;;11.50;;
77733;SDS011;66902;41.720;44.796;2023-04-24T14:49:57;18.90;;;11.10;;
77733;SDS011;66902;41.720;44.796;2023-04-24T14:52:40;18.90;;;12.70;;
77733;SDS011;66902;41.720;44.796;2023-04-24T14:55:17;12.40;;;10.80;;
77733;SDS011;66902;41.720;44.796;2023-04-24T14:57:53;18.20;;;11.90;;
77733;SDS011;66902;41.720;44.796;2023-04-24T15:00:30;18.60;;;12.10;;
77733;SDS011;66902;41.720;44.796;2023-04-24T15:03:04;18.10;;;12.10;;
77733;SDS011;66902;41.720;44.796;2023-04-24T15:08:22;18.70;;;12.50;;
77733;SDS011;66902;41.720;44.796;2023-04-24T15:11:07;19.70;;;13.30;;
77733;SDS011;66902;41.720;44.796;2023-04-24T15:13:42;17.00;;;12.30;;
77733;SDS011;66902;41.720;44.796;2023-04-24T15:16:22;13.60;;;12.10;;
77733;SDS011;66902;41.720;44.796;2023-04-24T15:19:02;16.20;;;14.00;;
77733;SDS011;66902;41.720;44.796;2023-04-24T15:24:13;18.00;;;14.10;;
77733;SDS011;66902;41.720;44.796;2023-04-24T15:26:51;18.60;;;12.20;;
77733;SDS011;66902;41.720;44.796;2023-04-24T15:29:31;20.90;;;11.60;;
77733;SDS011;66902;41.720;44.796;2023-04-24T15:32:22;14.50;;;11.50;;
77733;SDS011;66902;41.720;44.796;2023-04-24T15:35:02;17.20;;;14.00;;
77733;SDS011;66902;41.720;44.796;2023-04-24T15:37:40;16.60;;;13.30;;
77733;SDS011;66902;41.720;44.796;2023-04-24T15:40:22;19.00;;;15.20;;
77733;SDS011;66902;41.720;44.796;2023-04-24T15:43:11;16.40;;;12.60;;
77733;SDS011;66902;41.720;44.796;2023-04-24T15:45:51;17.60;;;13.00;;
77733;SDS011;66902;41.720;44.796;2023-04-24T15:48:39;20.40;;;14.00;;